Time;durP1;ratioP1;P1;durP2;ratioP2;P2;SDS_P1;SDS_P2;PMS_P1;PMS_P2;Temp;Humidity;BMP_temperature;BMP_pressure;BME280_temperature;BME280_humidity;BME280_pressure;Samples;Min_cycle;Max_cycle;Signal;HPM_P1;HPM_P2
2024/02/02 00:01:14;;;;;;;34.20;17.55;;;;;;;2.28;60.20;99902.31;5098325;28;20473;-80
2024/02/02 00:03:39;;;;;;;43.15;19.38;;;;;;;2.27;60.40;99902.59;5099654;28;20102;-80
2024/02/02 00:06:08;;;;;;;34.83;17.60;;;;;;;2.18;60.25;99905.03;5102328;28;20042;-79
2024/02/02 00:08:34;;;;;;;38.40;19.73;;;;;;;2.14;59.92;99890.94;5097489;28;20030;-80
2024/02/02 00:11:00;;;;;;;35.92;18.63;;;;;;;2.20;59.15;99897.31;5087665;28;20114;-81
2024/02/02 00:13:26;;;;;;;46.65;22.00;;;;;;;2.15;59.73;99905.56;5098776;28;20035;-79
2024/02/02 00:15:52;;;;;;;51.25;22.42;;;;;;;2.13;59.59;99889.28;5094980;28;20109;-80
2024/02/02 00:18:18;;;;;;;42.22;22.27;;;;;;;1.68;61.35;99906.09;5099282;28;20023;-81
2024/02/02 00:20:44;;;;;;;38.97;20.50;;;;;;;1.66;62.14;99902.78;5116588;28;20031;-81
2024/02/02 00:23:12;;;;;;;48.00;20.42;;;;;;;1.70;62.07;99908.63;5117303;28;20043;-80
2024/02/02 00:25:38;;;;;;;39.65;21.10;;;;;;;1.65;62.40;99900.28;5099727;28;20050;-81
2024/02/02 00:28:04;;;;;;;54.00;24.90;;;;;;;1.82;62.41;99906.50;5116385;28;20027;-80
2024/02/02 00:30:35;;;;;;;49.22;24.23;;;;;;;1.85;62.38;99907.03;5115879;28;20499;-80
2024/02/02 00:33:04;;;;;;;55.88;26.80;;;;;;;1.67;63.26;99898.94;5115395;28;20027;-80
2024/02/02 00:35:29;;;;;;;46.85;24.17;;;;;;;1.81;63.16;99888.28;5097900;28;20042;-81
2024/02/02 00:37:55;;;;;;;52.63;24.92;;;;;;;1.60;63.54;99889.22;5116409;28;20031;-80
2024/02/02 00:40:21;;;;;;;49.45;25.70;;;;;;;1.70;63.43;99881.03;5115677;28;20108;-80
2024/02/02 00:42:46;;;;;;;39.22;20.77;;;;;;;1.79;62.87;99884.13;5115470;28;20119;-80
2024/02/02 00:45:12;;;;;;;38.25;19.08;;;;;;;1.80;63.34;99888.53;5115252;28;20188;-80
2024/02/02 00:47:37;;;;;;;30.38;17.27;;;;;;;1.86;63.14;99879.19;5115514;28;20030;-81
2024/02/02 00:50:05;;;;;;;42.13;20.58;;;;;;;1.86;63.99;99883.88;5095863;28;20039;-76
2024/02/02 00:52:32;;;;;;;41.70;20.02;;;;;;;1.95;63.97;99874.81;5091081;28;20043;-76
2024/02/02 00:54:57;;;;;;;36.80;18.75;;;;;;;1.96;63.53;99883.94;5092721;28;20028;-76
2024/02/02 00:57:23;;;;;;;35.75;17.85;;;;;;;1.92;63.74;99872.59;5079462;28;20034;-76
2024/02/02 00:59:50;;;;;;;32.55;16.92;;;;;;;1.92;64.05;99872.59;5094593;28;20035;-76
2024/02/02 01:02:17;;;;;;;32.25;17.83;;;;;;;1.78;65.79;99882.47;5112333;28;20033;-76
2024/02/02 01:04:42;;;;;;;38.33;19.63;;;;;;;1.76;66.17;99884.66;5093732;28;20071;-76
2024/02/02 01:07:08;;;;;;;41.28;20.88;;;;;;;1.72;65.94;99870.56;5074994;28;20028;-76
2024/02/02 01:09:34;;;;;;;39.08;19.70;;;;;;;1.81;66.14;99873.63;5092372;28;20024;-76
2024/02/02 01:12:00;;;;;;;36.80;18.90;;;;;;;1.78;66.26;99880.50;5089893;28;20127;-77
2024/02/02 01:14:26;;;;;;;33.63;18.63;;;;;;;1.65;67.44;99881.81;5093166;28;20111;-76
2024/02/02 01:16:51;;;;;;;32.17;18.48;;;;;;;1.78;67.84;99877.75;5092154;28;20047;-76
2024/02/02 01:19:17;;;;;;;28.80;15.10;;;;;;;1.79;68.08;99881.34;5092206;28;20056;-76
2024/02/02 01:21:43;;;;;;;23.70;13.52;;;;;;;1.84;67.89;99875.84;5106357;28;20106;-77
2024/02/02 01:24:14;;;;;;;28.42;15.38;;;;;;;1.94;68.00;99880.63;5112566;28;20102;-76
2024/02/02 01:26:39;;;;;;;27.02;13.68;;;;;;;1.96;68.00;99881.19;5112331;28;20030;-76
2024/02/02 01:29:05;;;;;;;21.33;10.85;;;;;;;1.74;69.35;99871.13;5112382;28;20416;-77
2024/02/02 01:31:31;;;;;;;18.13;9.73;;;;;;;1.70;70.36;99874.66;5110548;28;20478;-76
2024/02/02 01:33:57;;;;;;;15.02;8.57;;;;;;;1.80;70.08;99859.00;5106088;28;20088;-76
2024/02/02 01:36:22;;;;;;;19.48;9.65;;;;;;;1.94;69.84;99858.56;5112583;28;20464;-76
2024/02/02 01:38:50;;;;;;;21.17;8.02;;;;;;;2.05;69.00;99837.34;5094177;28;20055;-76
2024/02/02 01:41:17;;;;;;;18.77;9.40;;;;;;;2.31;68.69;99857.63;5082375;28;20499;-77
2024/02/02 01:43:44;;;;;;;15.55;7.07;;;;;;;2.38;67.75;99840.78;5103751;28;20088;-76
2024/02/02 01:46:13;;;;;;;15.63;7.90;;;;;;;2.52;67.56;99846.59;5111231;28;20093;-76
2024/02/02 01:48:38;;;;;;;13.57;6.93;;;;;;;2.64;67.38;99844.44;5090812;28;20514;-76
2024/02/02 01:51:05;;;;;;;11.13;6.43;;;;;;;2.81;66.19;99835.09;5100255;28;20024;-76
2024/02/02 01:53:31;;;;;;;10.52;6.05;;;;;;;2.90;65.47;99841.75;5093560;28;20027;-76
2024/02/02 01:55:57;;;;;;;12.32;5.78;;;;;;;3.01;65.60;99836.19;5111750;28;20096;-75
2024/02/02 01:58:22;;;;;;;9.27;5.97;;;;;;;3.03;64.79;99839.53;5093323;28;20391;-76
2024/02/02 02:00:48;;;;;;;11.38;5.78;;;;;;;3.04;64.88;99832.91;5112016;28;20136;-75
2024/02/02 02:03:13;;;;;;;11.95;6.07;;;;;;;3.16;65.03;99852.81;5085798;28;20020;-75
2024/02/02 02:05:42;;;;;;;11.80;6.10;;;;;;;3.22;64.76;99856.41;5085676;28;20124;-75
2024/02/02 02:08:08;;;;;;;12.18;5.63;;;;;;;3.38;63.42;99846.16;5090005;28;20036;-75
2024/02/02 02:10:33;;;;;;;13.68;5.82;;;;;;;3.37;64.04;99848.09;5091547;28;20077;-75
2024/02/02 02:12:59;;;;;;;13.43;7.68;;;;;;;3.44;64.00;99849.72;5078497;28;20023;-75
2024/02/02 02:15:26;;;;;;;13.18;7.18;;;;;;;3.50;65.50;99860.53;5092317;28;20027;-75
2024/02/02 02:17:51;;;;;;;21.33;7.22;;;;;;;3.58;65.88;99852.78;5111712;28;20090;-75
2024/02/02 02:20:21;;;;;;;17.60;6.28;;;;;;;3.51;65.89;99855.81;5110311;28;20019;-75
2024/02/02 02:22:47;;;;;;;13.10;7.00;;;;;;;3.40;66.56;99843.09;5091347;28;20020;-74
2024/02/02 02:25:12;;;;;;;17.50;7.47;;;;;;;3.32;66.99;99855.56;5083400;28;20051;-75
2024/02/02 02:27:38;;;;;;;15.38;7.68;;;;;;;3.32;67.58;99861.09;5093231;28;20019;-76
2024/02/02 02:30:04;;;;;;;13.60;7.25;;;;;;;3.23;67.54;99850.56;5111646;28;20030;-75
2024/02/02 02:32:29;;;;;;;11.32;6.85;;;;;;;3.29;67.66;99858.88;5111354;28;20029;-75
2024/02/02 02:34:55;;;;;;;8.73;5.82;;;;;;;3.33;66.77;99859.97;5111504;28;20020;-75
2024/02/02 02:37:20;;;;;;;12.88;6.60;;;;;;;3.43;65.81;99848.91;5087864;28;20023;-75
2024/02/02 02:39:46;;;;;;;11.38;5.95;;;;;;;3.50;64.84;99849.47;5090483;28;20445;-75
2024/02/02 02:42:11;;;;;;;10.18;6.22;;;;;;;3.63;63.91;99858.31;5093094;28;20047;-75
2024/02/02 02:44:37;;;;;;;17.08;7.43;;;;;;;3.64;63.61;99846.94;5111504;28;20508;-75
2024/02/02 02:47:03;;;;;;;12.40;7.20;;;;;;;3.58;64.10;99856.38;5092984;28;20085;-75
2024/02/02 02:49:28;;;;;;;17.75;7.03;;;;;;;3.50;65.65;99852.25;5093011;28;20092;-75
2024/02/02 02:51:54;;;;;;;12.65;6.93;;;;;;;3.60;65.63;99856.09;5110879;28;20020;-75
2024/02/02 02:54:20;;;;;;;12.45;6.82;;;;;;;3.58;64.96;99844.47;5093229;28;20088;-76
2024/02/02 02:56:45;;;;;;;15.65;7.53;;;;;;;3.85;62.65;99848.84;5093348;28;20105;-75
2024/02/02 02:59:11;;;;;;;11.85;7.03;;;;;;;4.03;62.05;99856.53;5072184;28;20060;-75
2024/02/02 03:01:37;;;;;;;11.07;6.60;;;;;;;3.95;62.38;99859.88;5087114;28;20084;-75
2024/02/02 03:04:03;;;;;;;15.05;7.30;;;;;;;4.14;62.24;99862.88;5092918;28;20110;-75
2024/02/02 03:06:28;;;;;;;13.73;6.90;;;;;;;4.17;62.09;99865.09;5092780;28;20024;-75
2024/02/02 03:08:54;;;;;;;12.00;7.28;;;;;;;4.14;61.31;99867.59;5092909;28;20030;-75
2024/02/02 03:11:19;;;;;;;13.65;7.85;;;;;;;4.00;61.93;99851.59;5110997;28;20042;-77
2024/02/02 03:13:45;;;;;;;11.95;8.30;;;;;;;4.06;61.34;99855.16;5100334;28;20515;-77
2024/02/02 03:16:10;;;;;;;19.13;9.27;;;;;;;4.14;60.78;99857.31;5072395;28;20380;-77
2024/02/02 03:18:36;;;;;;;17.85;10.15;;;;;;;4.20;60.56;99860.91;5089034;28;20020;-77
2024/02/02 03:21:02;;;;;;;19.80;11.15;;;;;;;4.23;60.58;99860.38;5081220;28;20441;-77
2024/02/02 03:23:27;;;;;;;13.00;8.98;;;;;;;4.21;61.56;99857.88;5085330;28;20138;-77
2024/02/02 03:25:53;;;;;;;11.50;6.95;;;;;;;4.18;61.77;99863.13;5090133;28;20063;-76
2024/02/02 03:28:18;;;;;;;12.30;7.72;;;;;;;4.24;61.63;99861.19;5107779;28;20034;-77
2024/02/02 03:30:44;;;;;;;21.63;8.80;;;;;;;4.20;61.31;99867.28;5096613;28;20023;-77
2024/02/02 03:33:09;;;;;;;13.65;7.57;;;;;;;4.28;62.18;99867.78;5095601;28;20020;-77
2024/02/02 03:35:35;;;;;;;18.40;8.45;;;;;;;4.22;62.51;99858.69;5114168;28;20495;-76
2024/02/02 03:38:00;;;;;;;17.00;8.88;;;;;;;4.24;63.08;99859.25;5096185;28;20031;-77
2024/02/02 03:40:26;;;;;;;17.63;9.13;;;;;;;4.21;63.03;99857.03;5114603;28;20500;-77
2024/02/02 03:42:51;;;;;;;19.75;8.93;;;;;;;4.37;62.34;99866.09;5096016;28;20027;-77
2024/02/02 03:45:17;;;;;;;14.43;7.35;;;;;;;4.47;61.33;99865.25;5114342;28;20035;-77
2024/02/02 03:47:42;;;;;;;12.25;8.00;;;;;;;4.52;61.48;99867.97;5095691;28;20028;-77
2024/02/02 03:50:09;;;;;;;14.40;7.78;;;;;;;4.50;61.98;99859.13;5106423;28;20113;-77
2024/02/02 03:52:34;;;;;;;18.52;9.65;;;;;;;4.54;61.34;99874.06;5075605;28;20512;-77
2024/02/02 03:55:00;;;;;;;14.52;7.50;;;;;;;4.63;60.95;99880.66;5094709;28;20101;-77
2024/02/02 03:57:25;;;;;;;17.70;8.70;;;;;;;4.64;61.06;99884.25;5114093;28;20099;-77
2024/02/02 03:59:51;;;;;;;16.15;9.45;;;;;;;4.49;61.83;99879.63;5113854;28;20553;-77
2024/02/02 04:02:16;;;;;;;14.88;8.20;;;;;;;4.37;63.30;99890.22;5095882;28;20046;-77
2024/02/02 04:04:44;;;;;;;17.40;11.18;;;;;;;4.25;64.65;99896.06;5095584;28;20575;-77
2024/02/02 04:07:09;;;;;;;25.60;10.82;;;;;;;4.00;66.22;99887.56;5075088;28;20039;-78
2024/02/02 04:09:35;;;;;;;16.40;10.13;;;;;;;3.81;68.48;99892.88;5075336;28;20024;-78
2024/02/02 04:12:00;;;;;;;17.50;9.52;;;;;;;3.67;69.27;99887.06;5076233;28;20023;-78
2024/02/02 04:14:26;;;;;;;18.35;10.60;;;;;;;3.70;69.82;99885.69;5099604;28;20024;-78
2024/02/02 04:16:51;;;;;;;19.20;11.48;;;;;;;3.75;69.78;99891.19;5075322;28;20019;-78
2024/02/02 04:19:19;;;;;;;18.75;11.40;;;;;;;3.80;68.64;99891.19;5093474;28;20089;-80
2024/02/02 04:21:44;;;;;;;24.63;13.30;;;;;;;3.91;68.13;99889.25;5095068;28;20032;-80
2024/02/02 04:24:11;;;;;;;34.35;18.48;;;;;;;4.03;67.24;99905.53;5074943;28;20630;-81
2024/02/02 04:26:36;;;;;;;43.38;25.02;;;;;;;4.14;67.17;99906.34;5093122;28;20027;-81
2024/02/02 04:29:03;;;;;;;34.33;20.27;;;;;;;4.25;64.95;99910.75;5093254;28;20024;-81
2024/02/02 04:31:29;;;;;;;70.18;30.13;;;;;;;4.63;63.10;99913.06;5093105;28;20038;-80
2024/02/02 04:33:54;;;;;;;50.15;25.15;;;;;;;4.80;62.55;99911.91;5084083;28;20027;-80
2024/02/02 04:36:20;;;;;;;70.03;32.88;;;;;;;4.83;62.73;99914.94;5112109;28;20484;-81
2024/02/02 04:38:45;;;;;;;57.13;29.83;;;;;;;4.70;62.93;99913.59;5112175;28;20031;-80
2024/02/02 04:41:11;;;;;;;28.67;15.50;;;;;;;4.77;62.48;99928.00;5095140;28;20121;-80
2024/02/02 04:43:36;;;;;;;27.60;12.77;;;;;;;5.06;60.59;99927.28;5108959;28;20496;-80
2024/02/02 04:46:02;;;;;;;34.63;16.55;;;;;;;5.11;60.04;99928.34;5113264;28;20490;-80
2024/02/02 04:48:27;;;;;;;33.17;17.73;;;;;;;4.96;61.45;99929.28;5087335;28;20028;-80
2024/02/02 04:50:53;;;;;;;41.58;19.08;;;;;;;4.95;61.37;99935.91;5094511;28;20036;-81
2024/02/02 04:53:18;;;;;;;37.85;21.42;;;;;;;4.95;60.91;99941.47;5109284;28;20583;-80
2024/02/02 04:55:44;;;;;;;42.53;23.60;;;;;;;4.98;61.35;99936.19;5091147;28;20051;-80
2024/02/02 04:58:09;;;;;;;44.22;20.67;;;;;;;4.92;61.05;99935.38;5093363;28;20125;-79
2024/02/02 05:00:38;;;;;;;29.55;17.00;;;;;;;5.02;61.20;99939.22;5093375;28;20050;-80
2024/02/02 05:03:03;;;;;;;33.28;18.75;;;;;;;5.02;61.41;99942.00;5094455;28;20015;-80
2024/02/02 05:05:29;;;;;;;48.15;24.67;;;;;;;5.08;61.60;99940.84;5094446;28;20066;-80
2024/02/02 05:07:54;;;;;;;81.90;35.80;;;;;;;5.00;62.10;99960.84;5094400;28;20051;-78
2024/02/02 05:10:20;;;;;;;57.92;30.52;;;;;;;5.00;62.18;99958.91;5112598;28;20084;-80
2024/02/02 05:12:45;;;;;;;63.90;32.55;;;;;;;4.93;63.43;99950.09;5112174;28;20020;-80
2024/02/02 05:15:11;;;;;;;46.20;24.08;;;;;;;4.94;63.10;99957.28;5094271;28;20019;-79
2024/02/02 05:17:37;;;;;;;31.05;19.02;;;;;;;4.88;63.57;99961.19;5111386;28;20028;-80
2024/02/02 05:20:04;;;;;;;40.58;18.10;;;;;;;4.93;63.87;99961.16;5112251;28;20411;-80
2024/02/02 05:22:30;;;;;;;44.00;22.73;;;;;;;5.00;64.06;99966.41;5092431;28;20038;-78
2024/02/02 05:24:55;;;;;;;30.67;19.55;;;;;;;4.88;63.76;99959.25;5093967;28;20019;-79
2024/02/02 05:27:21;;;;;;;35.80;19.02;;;;;;;4.95;64.15;99958.94;5112490;28;20263;-81
2024/02/02 05:29:48;;;;;;;35.85;14.90;;;;;;;4.99;63.98;99964.75;5112376;28;20028;-80
2024/02/02 05:32:14;;;;;;;40.13;12.73;;;;;;;4.91;64.28;99972.53;5101761;28;20836;-79
2024/02/02 05:34:43;;;;;;;57.15;18.92;;;;;;;4.84;64.49;99969.25;5097607;28;20047;-78
2024/02/02 05:37:08;;;;;;;33.75;16.48;;;;;;;4.76;64.88;99964.31;5110831;28;20503;-80
2024/02/02 05:39:34;;;;;;;29.02;15.68;;;;;;;4.88;65.00;99970.34;5108082;28;20058;-79
2024/02/02 05:42:00;;;;;;;29.65;16.75;;;;;;;5.08;64.40;99976.06;5085173;28;20442;-80
2024/02/02 05:44:26;;;;;;;27.25;16.75;;;;;;;5.17;64.22;99983.47;5109241;28;20032;-80
2024/02/02 05:46:52;;;;;;;28.63;15.13;;;;;;;5.21;64.08;99992.06;5111192;28;20027;-79
2024/02/02 05:49:17;;;;;;;32.97;17.85;;;;;;;5.31;64.15;99999.53;5089666;28;20038;-81
2024/02/02 05:51:43;;;;;;;32.20;17.05;;;;;;;5.36;63.72;99993.94;5091088;28;20115;-80
2024/02/02 05:54:08;;;;;;;30.17;16.45;;;;;;;5.38;64.56;99988.91;5110980;28;20102;-80
2024/02/02 05:56:34;;;;;;;32.58;17.90;;;;;;;5.34;64.50;99993.38;5092143;28;20035;-80
2024/02/02 05:58:59;;;;;;;35.55;19.70;;;;;;;5.29;64.92;100004.50;5092232;28;20027;-75
2024/02/02 06:01:25;;;;;;;34.30;19.75;;;;;;;5.27;65.98;100002.03;5082764;28;20466;-76
2024/02/02 06:03:50;;;;;;;42.30;20.90;;;;;;;5.29;67.17;100007.28;5098867;28;20136;-76
2024/02/02 06:06:16;;;;;;;54.53;28.58;;;;;;;5.19;67.98;100016.50;5111434;28;20028;-76
2024/02/02 06:08:41;;;;;;;54.42;28.98;;;;;;;5.14;69.21;100020.13;5093427;28;20525;-77
2024/02/02 06:11:07;;;;;;;29.20;17.60;;;;;;;5.42;68.87;100025.25;5093316;28;20480;-76
2024/02/02 06:13:33;;;;;;;35.15;17.98;;;;;;;5.59;68.08;100016.53;5111489;28;20038;-78
2024/02/02 06:15:58;;;;;;;37.85;19.10;;;;;;;5.76;67.14;100027.25;5096478;28;20027;-76
2024/02/02 06:18:24;;;;;;;36.85;20.65;;;;;;;5.79;67.01;100031.38;5096028;28;20109;-75
2024/02/02 06:20:50;;;;;;;31.70;21.35;;;;;;;5.87;66.53;100027.97;5111165;28;20160;-75
2024/02/02 06:23:15;;;;;;;26.35;16.75;;;;;;;6.06;65.67;100030.09;5091850;28;20047;-75
2024/02/02 06:25:41;;;;;;;25.85;16.27;;;;;;;6.15;64.68;100022.75;5090999;28;20039;-75
2024/02/02 06:28:08;;;;;;;31.48;16.05;;;;;;;6.24;64.70;100031.31;5072852;28;20484;-76
2024/02/02 06:30:33;;;;;;;27.55;17.35;;;;;;;6.09;65.69;100026.72;5081392;28;20027;-75
2024/02/02 06:33:02;;;;;;;29.80;16.17;;;;;;;6.07;65.82;100027.00;5080287;28;20527;-74
2024/02/02 06:35:28;;;;;;;32.22;16.60;;;;;;;6.04;66.62;100022.03;5102338;28;20023;-79
2024/02/02 06:37:53;;;;;;;30.85;16.02;;;;;;;6.06;67.16;100027.31;5094917;28;20031;-75
2024/02/02 06:40:19;;;;;;;32.60;16.45;;;;;;;6.02;67.34;100027.88;5086390;28;20477;-75
2024/02/02 06:42:45;;;;;;;29.00;16.73;;;;;;;5.98;68.21;100039.84;5090539;28;20118;-78
2024/02/02 06:45:10;;;;;;;30.02;17.10;;;;;;;6.00;68.18;100035.63;5091321;28;20024;-79
2024/02/02 06:47:37;;;;;;;31.15;17.15;;;;;;;5.99;68.87;100045.09;5090287;28;20036;-78
2024/02/02 06:50:06;;;;;;;29.55;16.85;;;;;;;5.99;69.13;100047.06;5089268;28;20035;-77
2024/02/02 06:52:32;;;;;;;36.07;18.33;;;;;;;5.96;69.75;100056.78;5080172;28;20040;-78
2024/02/02 06:54:57;;;;;;;32.45;17.73;;;;;;;5.89;70.51;100061.84;5097577;28;20030;-76
2024/02/02 06:57:25;;;;;;;36.78;21.92;;;;;;;5.79;71.11;100061.91;5078502;28;20116;-74
2024/02/02 06:59:52;;;;;;;32.50;19.88;;;;;;;5.90;70.39;100074.59;5083554;28;20513;-76
2024/02/02 07:02:20;;;;;;;33.65;19.33;;;;;;;5.89;71.10;100078.50;5090080;28;20045;-76
2024/02/02 07:04:47;;;;;;;32.63;19.23;;;;;;;5.81;71.47;100071.59;5092016;28;20472;-77
2024/02/02 07:07:13;;;;;;;31.45;19.33;;;;;;;5.78;71.88;100079.69;5090220;28;20093;-74
2024/02/02 07:09:39;;;;;;;32.80;20.77;;;;;;;5.80;72.02;100077.47;5095221;28;20056;-75
2024/02/02 07:12:06;;;;;;;43.60;21.75;;;;;;;5.80;72.09;100078.28;5104298;28;20024;-74
2024/02/02 07:14:49;;;;;;;55.45;26.80;;;;;;;5.84;72.30;100078.53;5107723;28;20031;-78
2024/02/02 07:17:29;;;;;;;45.90;22.00;;;;;;;5.83;72.47;100090.75;5085074;28;20347;-74
2024/02/02 07:19:56;;;;;;;44.75;24.08;;;;;;;5.78;72.64;100093.56;5091269;28;20697;-74
2024/02/02 07:22:42;;;;;;;37.92;22.42;;;;;;;5.84;72.87;100096.00;5109337;28;20027;-74
2024/02/02 07:25:12;;;;;;;31.58;19.50;;;;;;;5.93;73.37;100110.13;5107392;28;21776;-75
2024/02/02 07:27:38;;;;;;;30.95;19.08;;;;;;;5.99;72.71;100114.53;5110459;28;20034;-73
2024/02/02 07:30:12;;;;;;;34.95;19.80;;;;;;;6.01;73.11;100120.66;5111582;28;20032;-75
2024/02/02 07:32:38;;;;;;;32.17;19.98;;;;;;;6.01;73.58;100120.66;5074194;28;20031;-75
2024/02/02 07:35:04;;;;;;;33.35;19.33;;;;;;;6.07;73.24;100113.09;5107750;28;20027;-76
2024/02/02 07:37:46;;;;;;;33.83;19.83;;;;;;;6.10;73.32;100128.38;5086986;28;20019;-77
2024/02/02 07:40:40;;;;;;;32.60;18.40;;;;;;;6.16;73.53;100130.81;5092603;28;20031;-74
2024/02/02 07:43:07;;;;;;;38.20;21.50;;;;;;;6.15;74.63;100136.66;5085759;28;20039;-74
2024/02/02 07:45:33;;;;;;;28.88;18.77;;;;;;;6.22;74.02;100134.38;5106633;28;20032;-74
2024/02/02 07:47:59;;;;;;;37.13;21.02;;;;;;;6.24;74.17;100136.88;5088211;28;20373;-74
2024/02/02 07:50:24;;;;;;;48.22;26.70;;;;;;;6.30;73.77;100130.16;5109958;28;20034;-74
2024/02/02 07:52:50;;;;;;;36.83;20.90;;;;;;;6.38;74.34;100145.38;5093455;28;20038;-74
2024/02/02 07:55:15;;;;;;;34.78;18.10;;;;;;;6.46;73.00;100139.19;5108076;28;20423;-72
2024/02/02 07:57:42;;;;;;;28.40;18.40;;;;;;;6.48;73.75;100136.97;5106592;28;20028;-72
2024/02/02 08:00:09;;;;;;;30.13;18.02;;;;;;;6.57;73.84;100148.28;5091871;28;20545;-74
2024/02/02 08:02:34;;;;;;;30.92;19.98;;;;;;;6.56;74.44;100152.19;5089581;28;20102;-74
2024/02/02 08:05:00;;;;;;;37.83;18.70;;;;;;;6.58;74.18;100153.56;5085655;28;20531;-73
2024/02/02 08:07:25;;;;;;;35.92;19.75;;;;;;;6.59;74.13;100144.09;5102770;28;20030;-74
2024/02/02 08:09:51;;;;;;;33.15;19.20;;;;;;;6.58;74.24;100141.63;5101438;28;20031;-74
2024/02/02 08:12:16;;;;;;;28.70;19.08;;;;;;;6.63;74.73;100155.47;5100701;28;20054;-74
2024/02/02 08:14:42;;;;;;;35.60;21.48;;;;;;;6.57;74.91;100154.69;5078964;28;20506;-73
2024/02/02 08:17:09;;;;;;;28.17;18.77;;;;;;;6.68;74.96;100162.94;5086545;28;20091;-74
2024/02/02 08:19:35;;;;;;;35.60;20.73;;;;;;;6.71;75.38;100168.75;5109047;28;20031;-74
2024/02/02 08:22:00;;;;;;;35.38;21.42;;;;;;;6.65;74.85;100163.53;5075380;28;20031;-74
2024/02/02 08:24:26;;;;;;;27.70;19.45;;;;;;;6.68;75.30;100163.75;5096471;28;20040;-74
2024/02/02 08:26:51;;;;;;;28.90;19.73;;;;;;;6.69;75.40;100170.16;5077490;28;20122;-73
2024/02/02 08:29:17;;;;;;;39.40;21.67;;;;;;;6.73;75.31;100174.00;5092666;28;20522;-74
2024/02/02 08:31:46;;;;;;;30.45;20.67;;;;;;;6.70;75.08;100177.38;5110502;28;20055;-74
2024/02/02 08:34:12;;;;;;;38.72;20.52;;;;;;;6.74;74.87;100173.72;5111912;27;20495;-74
2024/02/02 08:36:38;;;;;;;38.20;20.67;;;;;;;6.80;74.98;100165.31;5109135;28;20034;-74
2024/02/02 08:39:08;;;;;;;37.53;19.10;;;;;;;6.81;74.74;100172.53;5090373;28;20542;-74
2024/02/02 08:41:35;;;;;;;27.25;16.70;;;;;;;6.80;73.49;100171.72;5085176;28;20097;-74
2024/02/02 08:44:04;;;;;;;35.17;16.95;;;;;;;6.79;73.09;100172.00;5102390;28;20108;-80
2024/02/02 08:46:35;;;;;;;33.22;18.27;;;;;;;6.81;73.00;100165.03;5092111;28;20495;-73
2024/02/02 08:49:01;;;;;;;29.70;18.38;;;;;;;6.83;72.66;100168.34;5103401;28;20415;-75
2024/02/02 08:51:49;;;;;;;35.53;21.20;;;;;;;6.92;73.22;100176.06;5057001;28;20036;-73
2024/02/02 08:54:15;;;;;;;32.80;17.13;;;;;;;6.92;71.20;100168.53;5077985;28;20031;-72
2024/02/02 08:56:41;;;;;;;26.65;16.73;;;;;;;6.93;71.08;100164.63;5108220;28;20035;-73
2024/02/02 08:59:35;;;;;;;27.63;17.95;;;;;;;6.99;71.56;100177.38;5085345;28;20024;-74
2024/02/02 09:02:06;;;;;;;33.30;20.20;;;;;;;7.09;71.76;100167.25;5077337;28;20059;-76
2024/02/02 09:04:55;;;;;;;31.20;18.63;;;;;;;7.23;70.94;100168.22;5102772;27;20032;-73
2024/02/02 09:07:22;;;;;;;29.20;16.95;;;;;;;7.23;69.29;100168.22;5087130;28;20019;-73
2024/02/02 09:09:47;;;;;;;30.95;19.60;;;;;;;7.35;70.43;100166.97;5102986;28;20019;-74
2024/02/02 09:12:13;;;;;;;29.00;17.33;;;;;;;7.27;69.16;100154.53;5098226;28;20038;-74
2024/02/02 09:14:41;;;;;;;27.98;16.75;;;;;;;7.27;69.76;100158.13;5106180;28;20022;-74
2024/02/02 09:17:07;;;;;;;25.92;17.52;;;;;;;7.33;68.88;100156.13;5086521;28;20039;-72
2024/02/02 09:19:45;;;;;;;33.90;16.50;;;;;;;7.36;67.98;100174.19;5107780;28;20058;-73
2024/02/02 09:22:15;;;;;;;29.10;16.00;;;;;;;7.39;68.57;100154.94;5083903;28;20564;-73
2024/02/02 09:24:53;;;;;;;33.20;17.75;;;;;;;7.45;68.24;100158.50;5107999;28;20088;-72
2024/02/02 09:27:35;;;;;;;31.77;16.63;;;;;;;7.61;67.34;100170.28;5102407;28;20032;-72
2024/02/02 09:30:06;;;;;;;44.83;19.13;;;;;;;7.63;66.73;100164.41;5108484;28;20482;-73
2024/02/02 09:32:31;;;;;;;31.73;17.30;;;;;;;7.55;66.50;100143.63;5086745;28;20381;-72
2024/02/02 09:35:00;;;;;;;30.00;15.35;;;;;;;7.55;66.03;100149.19;5107308;28;20024;-72
2024/02/02 09:37:46;;;;;;;30.60;16.92;;;;;;;7.55;67.23;100146.41;5091676;28;20453;-72
2024/02/02 09:40:43;;;;;;;30.95;17.77;;;;;;;7.56;65.92;100148.06;5104585;28;20026;-72
2024/02/02 09:43:29;;;;;;;38.72;19.35;;;;;;;7.71;65.77;100167.34;5099587;28;20028;-72
2024/02/02 09:46:16;;;;;;;28.60;16.67;;;;;;;7.81;64.54;100159.97;5093216;28;20391;-72
2024/02/02 09:49:11;;;;;;;33.80;18.80;;;;;;;7.81;63.84;100159.97;5078939;28;20024;-72
2024/02/02 09:52:03;;;;;;;25.38;15.48;;;;;;;7.77;63.98;100161.72;5091246;28;20020;-71
2024/02/02 09:54:47;;;;;;;32.28;17.52;;;;;;;7.69;64.13;100155.69;5088203;28;20044;-72
2024/02/02 09:57:21;;;;;;;27.33;17.42;;;;;;;7.63;65.59;100154.09;5097558;28;20068;-73
2024/02/02 09:59:58;;;;;;;27.10;15.70;;;;;;;7.55;64.56;100151.97;5087934;28;20028;-73
2024/02/02 10:02:45;;;;;;;23.83;15.70;;;;;;;7.46;64.80;100171.28;5072175;28;20034;-71
2024/02/02 10:05:29;;;;;;;30.58;17.77;;;;;;;7.49;66.32;100169.88;5089421;28;20118;-71
2024/02/02 10:08:07;;;;;;;33.13;17.00;;;;;;;7.63;65.01;100165.25;5091536;28;20036;-72
2024/02/02 10:10:53;;;;;;;29.40;17.00;;;;;;;7.58;64.83;100162.50;5092126;28;20091;-72
2024/02/02 10:13:30;;;;;;;34.47;17.65;;;;;;;7.47;65.38;100155.41;5110465;28;20503;-72
2024/02/02 10:16:18;;;;;;;24.38;15.85;;;;;;;7.43;64.81;100161.56;5075488;28;20012;-73
2024/02/02 10:18:52;;;;;;;27.80;18.85;;;;;;;7.58;65.16;100165.28;5110669;28;20032;-73
2024/02/02 10:22:13;;;;;;;29.25;19.23;;;;;;;7.51;64.44;100156.50;5092190;28;20023;-74
2024/02/02 10:25:00;;;;;;;28.58;17.15;;;;;;;7.62;65.06;100152.44;5074328;28;20032;-73
2024/02/02 10:27:31;;;;;;;29.48;18.02;;;;;;;7.71;64.14;100161.78;5091603;28;20028;-71
2024/02/02 10:30:09;;;;;;;31.17;17.83;;;;;;;7.63;63.73;100151.31;5108621;28;20032;-71
2024/02/02 10:32:47;;;;;;;31.52;18.23;;;;;;;7.67;63.28;100157.13;5087912;28;20618;-70
2024/02/02 10:35:55;;;;;;;73.85;35.88;;;;;;;7.60;63.28;100137.97;5088004;28;20028;-72
2024/02/02 10:39:02;;;;;;;31.42;16.08;;;;;;;7.91;63.18;100148.69;5056302;28;20036;-71
2024/02/02 10:41:34;;;;;;;34.92;18.00;;;;;;;8.30;61.70;100141.16;5017072;28;20087;-73
2024/02/02 10:44:15;;;;;;;33.30;16.27;;;;;;;8.41;60.80;100141.81;5012819;28;20128;-74
2024/02/02 10:47:14;;;;;;;36.28;18.17;;;;;;;8.45;60.35;100134.50;5077230;28;20104;-74
2024/02/02 10:49:59;;;;;;;25.93;15.63;;;;;;;8.50;59.55;100126.09;5106282;28;20027;-71
2024/02/02 10:52:38;;;;;;;30.35;16.42;;;;;;;8.63;59.38;100140.38;5105886;28;20160;-73
2024/02/02 10:55:29;;;;;;;24.55;15.73;;;;;;;8.55;59.48;100155.84;5104442;28;20200;-74
2024/02/02 10:58:31;;;;;;;27.10;15.07;;;;;;;8.26;59.12;100146.50;5105638;28;20044;-73
2024/02/02 11:01:15;;;;;;;29.15;15.32;;;;;;;8.46;58.29;100136.16;5106117;28;20027;-72
2024/02/02 11:03:53;;;;;;;20.15;13.85;;;;;;;8.55;58.56;100141.91;5083544;28;20110;-73
2024/02/02 11:06:43;;;;;;;24.45;15.00;;;;;;;8.76;57.86;100133.19;5103158;28;20032;-73
2024/02/02 11:09:24;;;;;;;22.95;14.25;;;;;;;8.58;57.07;100132.91;5087353;28;20023;-73
2024/02/02 11:12:04;;;;;;;26.13;15.02;;;;;;;8.50;57.07;100131.66;5085976;28;20874;-75
2024/02/02 11:14:30;;;;;;;25.08;15.48;;;;;;;8.26;57.37;100138.16;5105205;28;20035;-73
2024/02/02 11:17:00;;;;;;;28.95;17.30;;;;;;;8.39;57.27;100141.28;5106917;28;20027;-75
2024/02/02 11:19:54;;;;;;;23.38;16.65;;;;;;;8.63;56.14;100123.63;5105654;28;20031;-71
2024/02/02 11:22:29;;;;;;;30.20;14.63;;;;;;;8.88;55.81;100124.31;5105393;28;20127;-74
2024/02/02 11:25:04;;;;;;;29.45;15.10;;;;;;;9.04;55.31;100122.88;5093429;28;20097;-74
2024/02/02 11:27:45;;;;;;;20.02;13.68;;;;;;;9.22;53.77;100115.53;5095723;28;20577;-74
2024/02/02 11:30:30;;;;;;;22.48;13.38;;;;;;;9.27;52.07;100109.88;5088869;28;20035;-75
2024/02/02 11:33:28;;;;;;;22.67;13.35;;;;;;;9.13;52.91;100123.00;5106071;28;20023;-76
2024/02/02 11:36:16;;;;;;;18.85;11.73;;;;;;;9.19;51.95;100123.72;5054274;28;20109;-75